sensor_id;sensor_type;location;lat;lon;timestamp;P1;durP1;ratioP1;P2;durP2;ratioP2
23470;SDS011;11908;50.806;4.424;2023-06-19T00:02:01;7.32;;;4.28;;
23470;SDS011;11908;50.806;4.424;2023-06-19T00:04:27;6.18;;;4.05;;
23470;SDS011;11908;50.806;4.424;2023-06-19T00:06:53;5.82;;;4.15;;
23470;SDS011;11908;50.806;4.424;2023-06-19T00:09:19;5.35;;;4.28;;
23470;SDS011;11908;50.806;4.424;2023-06-19T00:11:45;7.07;;;4.30;;
23470;SDS011;11908;50.806;4.424;2023-06-19T00:14:11;7.05;;;3.80;;
23470;SDS011;11908;50.806;4.424;2023-06-19T00:16:36;4.97;;;4.13;;
23470;SDS011;11908;50.806;4.424;2023-06-19T00:19:02;8.50;;;4.38;;
23470;SDS011;11908;50.806;4.424;2023-06-19T00:21:28;6.72;;;4.28;;
23470;SDS011;11908;50.806;4.424;2023-06-19T00:23:54;5.35;;;4.07;;
23470;SDS011;11908;50.806;4.424;2023-06-19T00:26:21;6.72;;;4.28;;
23470;SDS011;11908;50.806;4.424;2023-06-19T00:28:50;7.13;;;4.10;;
23470;SDS011;11908;50.806;4.424;2023-06-19T00:31:16;8.05;;;3.90;;
23470;SDS011;11908;50.806;4.424;2023-06-19T00:33:43;5.68;;;3.65;;
23470;SDS011;11908;50.806;4.424;2023-06-19T00:36:10;5.38;;;3.85;;
23470;SDS011;11908;50.806;4.424;2023-06-19T00:38:37;5.25;;;4.20;;
23470;SDS011;11908;50.806;4.424;2023-06-19T00:41:03;7.20;;;3.88;;
23470;SDS011;11908;50.806;4.424;2023-06-19T00:43:30;4.20;;;3.25;;
23470;SDS011;11908;50.806;4.424;2023-06-19T00:45:56;6.50;;;3.25;;
23470;SDS011;11908;50.806;4.424;2023-06-19T00:48:26;6.22;;;3.38;;
23470;SDS011;11908;50.806;4.424;2023-06-19T00:50:52;4.82;;;3.30;;
23470;SDS011;11908;50.806;4.424;2023-06-19T00:53:19;4.85;;;3.85;;
23470;SDS011;11908;50.806;4.424;2023-06-19T00:55:46;5.60;;;3.72;;
23470;SDS011;11908;50.806;4.424;2023-06-19T00:58:13;4.63;;;3.53;;
23470;SDS011;11908;50.806;4.424;2023-06-19T01:04:00;8.27;;;3.92;;
23470;SDS011;11908;50.806;4.424;2023-06-19T01:06:27;6.30;;;3.75;;
23470;SDS011;11908;50.806;4.424;2023-06-19T01:09:04;7.22;;;4.00;;
23470;SDS011;11908;50.806;4.424;2023-06-19T01:11:33;5.03;;;3.50;;
23470;SDS011;11908;50.806;4.424;2023-06-19T01:14:12;6.70;;;3.78;;
23470;SDS011;11908;50.806;4.424;2023-06-19T01:16:43;5.40;;;4.13;;
23470;SDS011;11908;50.806;4.424;2023-06-19T01:19:10;6.93;;;4.43;;
23470;SDS011;11908;50.806;4.424;2023-06-19T01:21:40;5.93;;;3.47;;
23470;SDS011;11908;50.806;4.424;2023-06-19T01:24:06;4.78;;;3.85;;
23470;SDS011;11908;50.806;4.424;2023-06-19T01:26:32;6.65;;;4.15;;
23470;SDS011;11908;50.806;4.424;2023-06-19T01:28:58;7.68;;;3.65;;
23470;SDS011;11908;50.806;4.424;2023-06-19T01:31:25;11.20;;;4.32;;
23470;SDS011;11908;50.806;4.424;2023-06-19T01:33:56;6.55;;;4.00;;
23470;SDS011;11908;50.806;4.424;2023-06-19T01:36:23;5.13;;;3.92;;
23470;SDS011;11908;50.806;4.424;2023-06-19T01:38:50;5.97;;;4.30;;
23470;SDS011;11908;50.806;4.424;2023-06-19T01:41:16;6.47;;;3.83;;
23470;SDS011;11908;50.806;4.424;2023-06-19T01:43:44;6.07;;;4.75;;
23470;SDS011;11908;50.806;4.424;2023-06-19T01:46:10;6.30;;;4.30;;
23470;SDS011;11908;50.806;4.424;2023-06-19T01:48:37;7.18;;;3.90;;
23470;SDS011;11908;50.806;4.424;2023-06-19T01:51:04;8.80;;;4.45;;
23470;SDS011;11908;50.806;4.424;2023-06-19T01:53:30;7.65;;;4.07;;
23470;SDS011;11908;50.806;4.424;2023-06-19T01:55:57;7.97;;;4.47;;
23470;SDS011;11908;50.806;4.424;2023-06-19T01:58:23;8.90;;;4.18;;
23470;SDS011;11908;50.806;4.424;2023-06-19T02:00:49;6.05;;;4.32;;
23470;SDS011;11908;50.806;4.424;2023-06-19T02:03:15;4.50;;;4.10;;
23470;SDS011;11908;50.806;4.424;2023-06-19T02:05:40;8.70;;;4.28;;
23470;SDS011;11908;50.806;4.424;2023-06-19T02:08:06;10.15;;;4.22;;
23470;SDS011;11908;50.806;4.424;2023-06-19T02:10:32;5.43;;;4.78;;
23470;SDS011;11908;50.806;4.424;2023-06-19T02:12:58;5.03;;;4.07;;
23470;SDS011;11908;50.806;4.424;2023-06-19T02:15:23;8.05;;;4.82;;
23470;SDS011;11908;50.806;4.424;2023-06-19T02:17:49;6.68;;;4.70;;
23470;SDS011;11908;50.806;4.424;2023-06-19T02:20:19;11.20;;;4.43;;
23470;SDS011;11908;50.806;4.424;2023-06-19T02:22:46;4.63;;;3.92;;
23470;SDS011;11908;50.806;4.424;2023-06-19T02:25:11;11.70;;;4.88;;
23470;SDS011;11908;50.806;4.424;2023-06-19T02:27:37;6.70;;;4.80;;
23470;SDS011;11908;50.806;4.424;2023-06-19T02:30:03;5.43;;;4.45;;
23470;SDS011;11908;50.806;4.424;2023-06-19T02:32:30;7.22;;;4.57;;
23470;SDS011;11908;50.806;4.424;2023-06-19T02:34:57;9.75;;;5.38;;
23470;SDS011;11908;50.806;4.424;2023-06-19T02:37:23;5.13;;;4.53;;
23470;SDS011;11908;50.806;4.424;2023-06-19T02:39:49;9.50;;;5.25;;
23470;SDS011;11908;50.806;4.424;2023-06-19T02:42:14;6.93;;;5.90;;
23470;SDS011;11908;50.806;4.424;2023-06-19T02:44:40;7.47;;;6.07;;
23470;SDS011;11908;50.806;4.424;2023-06-19T02:47:07;7.30;;;6.60;;
23470;SDS011;11908;50.806;4.424;2023-06-19T02:49:33;9.50;;;6.50;;
23470;SDS011;11908;50.806;4.424;2023-06-19T02:51:58;7.72;;;6.93;;
23470;SDS011;11908;50.806;4.424;2023-06-19T02:54:24;11.32;;;6.68;;
23470;SDS011;11908;50.806;4.424;2023-06-19T02:56:50;7.03;;;6.28;;
23470;SDS011;11908;50.806;4.424;2023-06-19T02:59:16;10.77;;;6.72;;
23470;SDS011;11908;50.806;4.424;2023-06-19T03:01:41;8.32;;;6.78;;
23470;SDS011;11908;50.806;4.424;2023-06-19T03:04:07;9.75;;;6.97;;
23470;SDS011;11908;50.806;4.424;2023-06-19T03:06:33;11.00;;;7.20;;
23470;SDS011;11908;50.806;4.424;2023-06-19T03:09:05;15.73;;;7.97;;
23470;SDS011;11908;50.806;4.424;2023-06-19T03:11:37;9.02;;;7.57;;
23470;SDS011;11908;50.806;4.424;2023-06-19T03:14:04;8.57;;;7.72;;
23470;SDS011;11908;50.806;4.424;2023-06-19T03:16:32;11.57;;;7.82;;
23470;SDS011;11908;50.806;4.424;2023-06-19T03:19:01;14.05;;;8.15;;
23470;SDS011;11908;50.806;4.424;2023-06-19T03:21:27;10.23;;;8.13;;
23470;SDS011;11908;50.806;4.424;2023-06-19T03:23:52;12.50;;;9.52;;
23470;SDS011;11908;50.806;4.424;2023-06-19T03:26:18;12.13;;;10.10;;
23470;SDS011;11908;50.806;4.424;2023-06-19T03:28:46;10.98;;;9.85;;
23470;SDS011;11908;50.806;4.424;2023-06-19T03:31:12;11.27;;;9.45;;
23470;SDS011;11908;50.806;4.424;2023-06-19T03:33:38;13.27;;;9.32;;
23470;SDS011;11908;50.806;4.424;2023-06-19T03:36:04;16.75;;;8.48;;
23470;SDS011;11908;50.806;4.424;2023-06-19T03:38:30;8.48;;;7.68;;
23470;SDS011;11908;50.806;4.424;2023-06-19T03:40:56;14.43;;;9.10;;
23470;SDS011;11908;50.806;4.424;2023-06-19T03:43:22;12.48;;;8.77;;
23470;SDS011;11908;50.806;4.424;2023-06-19T03:45:48;10.93;;;9.35;;
23470;SDS011;11908;50.806;4.424;2023-06-19T03:48:13;13.93;;;9.20;;
23470;SDS011;11908;50.806;4.424;2023-06-19T03:50:40;11.43;;;9.82;;
23470;SDS011;11908;50.806;4.424;2023-06-19T03:53:06;16.08;;;11.10;;
23470;SDS011;11908;50.806;4.424;2023-06-19T03:55:31;16.75;;;11.48;;
23470;SDS011;11908;50.806;4.424;2023-06-19T03:57:57;15.73;;;11.27;;
23470;SDS011;11908;50.806;4.424;2023-06-19T04:00:23;12.20;;;10.40;;
23470;SDS011;11908;50.806;4.424;2023-06-19T04:02:48;13.65;;;10.18;;
23470;SDS011;11908;50.806;4.424;2023-06-19T04:05:14;12.23;;;9.88;;
23470;SDS011;11908;50.806;4.424;2023-06-19T04:07:43;12.60;;;9.75;;
23470;SDS011;11908;50.806;4.424;2023-06-19T04:10:09;13.73;;;9.07;;
23470;SDS011;11908;50.806;4.424;2023-06-19T04:12:36;15.85;;;9.60;;
23470;SDS011;11908;50.806;4.424;2023-06-19T04:15:02;12.18;;;10.20;;
23470;SDS011;11908;50.806;4.424;2023-06-19T04:17:28;11.32;;;9.65;;
23470;SDS011;11908;50.806;4.424;2023-06-19T04:19:54;15.00;;;10.73;;
23470;SDS011;11908;50.806;4.424;2023-06-19T04:22:20;18.50;;;10.55;;
23470;SDS011;11908;50.806;4.424;2023-06-19T04:24:45;14.48;;;10.13;;
23470;SDS011;11908;50.806;4.424;2023-06-19T04:27:11;16.70;;;9.80;;
23470;SDS011;11908;50.806;4.424;2023-06-19T04:29:37;14.18;;;10.43;;
23470;SDS011;11908;50.806;4.424;2023-06-19T04:32:02;14.52;;;10.00;;
23470;SDS011;11908;50.806;4.424;2023-06-19T04:34:36;11.02;;;9.52;;
23470;SDS011;11908;50.806;4.424;2023-06-19T04:37:02;12.93;;;9.48;;
23470;SDS011;11908;50.806;4.424;2023-06-19T04:39:27;14.85;;;9.60;;
23470;SDS011;11908;50.806;4.424;2023-06-19T04:41:53;10.70;;;9.27;;
23470;SDS011;11908;50.806;4.424;2023-06-19T04:44:19;12.48;;;9.45;;
23470;SDS011;11908;50.806;4.424;2023-06-19T04:46:44;10.02;;;8.20;;
23470;SDS011;11908;50.806;4.424;2023-06-19T04:49:10;12.10;;;8.90;;
23470;SDS011;11908;50.806;4.424;2023-06-19T04:51:36;8.75;;;7.10;;
23470;SDS011;11908;50.806;4.424;2023-06-19T04:54:01;10.98;;;8.35;;
23470;SDS011;11908;50.806;4.424;2023-06-19T04:56:27;10.85;;;7.00;;
23470;SDS011;11908;50.806;4.424;2023-06-19T04:58:54;9.27;;;7.00;;
23470;SDS011;11908;50.806;4.424;2023-06-19T05:01:24;9.38;;;6.68;;
23470;SDS011;11908;50.806;4.424;2023-06-19T05:03:54;10.05;;;6.38;;
23470;SDS011;11908;50.806;4.424;2023-06-19T05:06:22;8.35;;;5.78;;
23470;SDS011;11908;50.806;4.424;2023-06-19T05:08:49;7.68;;;6.20;;
23470;SDS011;11908;50.806;4.424;2023-06-19T05:11:15;7.97;;;5.75;;
23470;SDS011;11908;50.806;4.424;2023-06-19T05:13:40;7.38;;;5.97;;
23470;SDS011;11908;50.806;4.424;2023-06-19T05:16:06;6.30;;;5.03;;
23470;SDS011;11908;50.806;4.424;2023-06-19T05:18:32;9.00;;;5.40;;
23470;SDS011;11908;50.806;4.424;2023-06-19T05:20:57;7.88;;;5.38;;
23470;SDS011;11908;50.806;4.424;2023-06-19T05:23:23;10.73;;;5.90;;
23470;SDS011;11908;50.806;4.424;2023-06-19T05:25:49;6.90;;;5.75;;
23470;SDS011;11908;50.806;4.424;2023-06-19T05:28:15;7.70;;;5.72;;
23470;SDS011;11908;50.806;4.424;2023-06-19T05:30:40;10.48;;;6.82;;
23470;SDS011;11908;50.806;4.424;2023-06-19T05:33:06;10.70;;;6.35;;
23470;SDS011;11908;50.806;4.424;2023-06-19T05:35:32;9.55;;;6.72;;
23470;SDS011;11908;50.806;4.424;2023-06-19T05:37:58;11.05;;;6.40;;
23470;SDS011;11908;50.806;4.424;2023-06-19T05:40:23;12.07;;;7.13;;
23470;SDS011;11908;50.806;4.424;2023-06-19T05:42:49;8.02;;;7.03;;
23470;SDS011;11908;50.806;4.424;2023-06-19T05:45:14;13.15;;;7.15;;
23470;SDS011;11908;50.806;4.424;2023-06-19T05:47:40;9.73;;;7.20;;
23470;SDS011;11908;50.806;4.424;2023-06-19T05:50:06;9.55;;;7.82;;
23470;SDS011;11908;50.806;4.424;2023-06-19T05:52:32;9.40;;;7.30;;
23470;SDS011;11908;50.806;4.424;2023-06-19T05:54:58;10.35;;;7.28;;
23470;SDS011;11908;50.806;4.424;2023-06-19T05:57:23;9.00;;;7.28;;
23470;SDS011;11908;50.806;4.424;2023-06-19T05:59:49;10.43;;;7.22;;
23470;SDS011;11908;50.806;4.424;2023-06-19T06:02:16;12.48;;;9.13;;
23470;SDS011;11908;50.806;4.424;2023-06-19T06:04:43;10.60;;;8.35;;
23470;SDS011;11908;50.806;4.424;2023-06-19T06:07:09;12.93;;;8.65;;
23470;SDS011;11908;50.806;4.424;2023-06-19T06:09:34;9.55;;;8.55;;
23470;SDS011;11908;50.806;4.424;2023-06-19T06:12:00;16.58;;;9.35;;
23470;SDS011;11908;50.806;4.424;2023-06-19T06:14:26;14.30;;;8.80;;
23470;SDS011;11908;50.806;4.424;2023-06-19T06:16:52;17.42;;;9.43;;
23470;SDS011;11908;50.806;4.424;2023-06-19T06:19:21;14.18;;;9.60;;
23470;SDS011;11908;50.806;4.424;2023-06-19T06:21:50;10.88;;;9.77;;
23470;SDS011;11908;50.806;4.424;2023-06-19T06:24:16;12.60;;;10.07;;
23470;SDS011;11908;50.806;4.424;2023-06-19T06:26:42;15.50;;;11.68;;
23470;SDS011;11908;50.806;4.424;2023-06-19T06:29:08;15.43;;;13.13;;
23470;SDS011;11908;50.806;4.424;2023-06-19T06:31:34;15.48;;;11.75;;
23470;SDS011;11908;50.806;4.424;2023-06-19T06:34:04;14.90;;;11.73;;
23470;SDS011;11908;50.806;4.424;2023-06-19T06:36:30;18.30;;;12.27;;
23470;SDS011;11908;50.806;4.424;2023-06-19T06:38:56;12.68;;;10.98;;
23470;SDS011;11908;50.806;4.424;2023-06-19T06:41:21;12.65;;;11.25;;
23470;SDS011;11908;50.806;4.424;2023-06-19T06:43:47;13.57;;;11.30;;
23470;SDS011;11908;50.806;4.424;2023-06-19T06:46:13;13.40;;;11.00;;
23470;SDS011;11908;50.806;4.424;2023-06-19T06:48:39;12.90;;;10.85;;
23470;SDS011;11908;50.806;4.424;2023-06-19T06:51:05;11.80;;;9.73;;
23470;SDS011;11908;50.806;4.424;2023-06-19T06:53:30;16.35;;;10.15;;
23470;SDS011;11908;50.806;4.424;2023-06-19T06:55:59;13.75;;;8.82;;
23470;SDS011;11908;50.806;4.424;2023-06-19T06:58:25;16.33;;;9.30;;
23470;SDS011;11908;50.806;4.424;2023-06-19T07:00:51;12.35;;;7.85;;
23470;SDS011;11908;50.806;4.424;2023-06-19T07:03:18;11.55;;;8.23;;
23470;SDS011;11908;50.806;4.424;2023-06-19T07:05:44;10.77;;;7.72;;
23470;SDS011;11908;50.806;4.424;2023-06-19T07:08:09;10.38;;;9.00;;
23470;SDS011;11908;50.806;4.424;2023-06-19T07:10:36;14.18;;;9.05;;
23470;SDS011;11908;50.806;4.424;2023-06-19T07:13:01;13.70;;;8.55;;
23470;SDS011;11908;50.806;4.424;2023-06-19T07:15:28;8.82;;;7.90;;
23470;SDS011;11908;50.806;4.424;2023-06-19T07:17:53;10.70;;;7.80;;
23470;SDS011;11908;50.806;4.424;2023-06-19T07:20:19;9.45;;;7.25;;
23470;SDS011;11908;50.806;4.424;2023-06-19T07:22:45;13.07;;;7.75;;
23470;SDS011;11908;50.806;4.424;2023-06-19T07:25:11;11.98;;;8.13;;
23470;SDS011;11908;50.806;4.424;2023-06-19T07:27:37;11.93;;;7.53;;
23470;SDS011;11908;50.806;4.424;2023-06-19T07:30:04;11.63;;;7.45;;
23470;SDS011;11908;50.806;4.424;2023-06-19T07:32:31;12.77;;;7.88;;
23470;SDS011;11908;50.806;4.424;2023-06-19T07:34:56;9.70;;;6.63;;
23470;SDS011;11908;50.806;4.424;2023-06-19T07:37:22;7.85;;;6.53;;
23470;SDS011;11908;50.806;4.424;2023-06-19T07:39:48;11.48;;;6.90;;
23470;SDS011;11908;50.806;4.424;2023-06-19T07:42:15;10.68;;;7.18;;
23470;SDS011;11908;50.806;4.424;2023-06-19T07:44:42;8.13;;;6.88;;
23470;SDS011;11908;50.806;4.424;2023-06-19T07:47:08;10.85;;;7.00;;
23470;SDS011;11908;50.806;4.424;2023-06-19T07:49:34;9.68;;;7.35;;
23470;SDS011;11908;50.806;4.424;2023-06-19T07:52:01;14.70;;;7.90;;
23470;SDS011;11908;50.806;4.424;2023-06-19T07:54:27;10.65;;;7.45;;
23470;SDS011;11908;50.806;4.424;2023-06-19T07:56:52;10.95;;;7.60;;
23470;SDS011;11908;50.806;4.424;2023-06-19T07:59:18;12.00;;;6.90;;
23470;SDS011;11908;50.806;4.424;2023-06-19T08:01:44;10.10;;;6.68;;
23470;SDS011;11908;50.806;4.424;2023-06-19T08:04:10;10.65;;;7.68;;
23470;SDS011;11908;50.806;4.424;2023-06-19T08:06:36;11.60;;;6.97;;
23470;SDS011;11908;50.806;4.424;2023-06-19T08:09:02;13.57;;;7.03;;
23470;SDS011;11908;50.806;4.424;2023-06-19T08:11:28;12.23;;;6.57;;
23470;SDS011;11908;50.806;4.424;2023-06-19T08:13:53;10.65;;;6.35;;
23470;SDS011;11908;50.806;4.424;2023-06-19T08:16:20;11.48;;;6.93;;
23470;SDS011;11908;50.806;4.424;2023-06-19T08:18:45;10.15;;;7.30;;
23470;SDS011;11908;50.806;4.424;2023-06-19T08:21:12;10.35;;;6.32;;
23470;SDS011;11908;50.806;4.424;2023-06-19T08:23:37;8.60;;;6.05;;
23470;SDS011;11908;50.806;4.424;2023-06-19T08:26:04;9.88;;;6.13;;
23470;SDS011;11908;50.806;4.424;2023-06-19T08:28:33;8.65;;;5.90;;
23470;SDS011;11908;50.806;4.424;2023-06-19T08:30:59;12.38;;;6.80;;
23470;SDS011;11908;50.806;4.424;2023-06-19T08:33:25;8.80;;;6.05;;
23470;SDS011;11908;50.806;4.424;2023-06-19T08:35:51;11.70;;;6.72;;
23470;SDS011;11908;50.806;4.424;2023-06-19T08:38:17;9.38;;;6.30;;
23470;SDS011;11908;50.806;4.424;2023-06-19T08:40:43;11.50;;;6.57;;
23470;SDS011;11908;50.806;4.424;2023-06-19T08:43:10;8.98;;;6.05;;
23470;SDS011;11908;50.806;4.424;2023-06-19T08:45:36;8.35;;;5.60;;
23470;SDS011;11908;50.806;4.424;2023-06-19T08:48:02;11.30;;;6.57;;
23470;SDS011;11908;50.806;4.424;2023-06-19T08:50:29;11.93;;;6.90;;
23470;SDS011;11908;50.806;4.424;2023-06-19T08:52:55;9.40;;;6.82;;
23470;SDS011;11908;50.806;4.424;2023-06-19T08:55:21;12.13;;;6.63;;
23470;SDS011;11908;50.806;4.424;2023-06-19T08:57:48;10.95;;;6.80;;
23470;SDS011;11908;50.806;4.424;2023-06-19T09:00:22;10.27;;;6.32;;
23470;SDS011;11908;50.806;4.424;2023-06-19T09:02:50;10.98;;;7.32;;
23470;SDS011;11908;50.806;4.424;2023-06-19T09:05:16;10.57;;;6.45;;
23470;SDS011;11908;50.806;4.424;2023-06-19T09:07:43;11.55;;;6.63;;
23470;SDS011;11908;50.806;4.424;2023-06-19T09:10:16;10.05;;;6.00;;
23470;SDS011;11908;50.806;4.424;2023-06-19T09:15:13;11.55;;;6.95;;
23470;SDS011;11908;50.806;4.424;2023-06-19T09:17:39;10.70;;;6.85;;
23470;SDS011;11908;50.806;4.424;2023-06-19T09:20:05;13.57;;;5.80;;
23470;SDS011;11908;50.806;4.424;2023-06-19T09:22:32;7.85;;;6.30;;
23470;SDS011;11908;50.806;4.424;2023-06-19T09:25:01;9.73;;;6.25;;
23470;SDS011;11908;50.806;4.424;2023-06-19T09:27:32;10.43;;;7.53;;
23470;SDS011;11908;50.806;4.424;2023-06-19T09:29:58;11.02;;;6.57;;
23470;SDS011;11908;50.806;4.424;2023-06-19T09:32:24;10.45;;;6.65;;
23470;SDS011;11908;50.806;4.424;2023-06-19T09:34:52;8.13;;;6.20;;
23470;SDS011;11908;50.806;4.424;2023-06-19T09:37:29;11.88;;;7.45;;
23470;SDS011;11908;50.806;4.424;2023-06-19T09:40:02;11.65;;;5.97;;
23470;SDS011;11908;50.806;4.424;2023-06-19T09:42:38;13.30;;;6.50;;
23470;SDS011;11908;50.806;4.424;2023-06-19T09:45:09;9.52;;;6.65;;
23470;SDS011;11908;50.806;4.424;2023-06-19T09:47:44;7.63;;;5.90;;
23470;SDS011;11908;50.806;4.424;2023-06-19T09:50:12;9.82;;;6.40;;
23470;SDS011;11908;50.806;4.424;2023-06-19T09:52:42;9.23;;;6.15;;
23470;SDS011;11908;50.806;4.424;2023-06-19T09:55:09;12.93;;;6.90;;
23470;SDS011;11908;50.806;4.424;2023-06-19T09:57:40;9.20;;;5.72;;
23470;SDS011;11908;50.806;4.424;2023-06-19T10:00:07;7.00;;;5.70;;
23470;SDS011;11908;50.806;4.424;2023-06-19T10:02:41;9.18;;;6.40;;
23470;SDS011;11908;50.806;4.424;2023-06-19T10:05:09;9.57;;;6.55;;
23470;SDS011;11908;50.806;4.424;2023-06-19T10:07:41;9.80;;;6.30;;
23470;SDS011;11908;50.806;4.424;2023-06-19T10:10:09;10.10;;;7.13;;
23470;SDS011;11908;50.806;4.424;2023-06-19T10:12:57;8.35;;;6.63;;
23470;SDS011;11908;50.806;4.424;2023-06-19T10:15:25;11.25;;;6.55;;
23470;SDS011;11908;50.806;4.424;2023-06-19T10:17:59;11.63;;;7.10;;
23470;SDS011;11908;50.806;4.424;2023-06-19T10:20:45;9.70;;;6.20;;
23470;SDS011;11908;50.806;4.424;2023-06-19T10:23:12;16.65;;;6.80;;
23470;SDS011;11908;50.806;4.424;2023-06-19T10:25:43;8.55;;;6.75;;
23470;SDS011;11908;50.806;4.424;2023-06-19T10:28:23;8.43;;;5.50;;
23470;SDS011;11908;50.806;4.424;2023-06-19T10:31:03;10.45;;;7.57;;
23470;SDS011;11908;50.806;4.424;2023-06-19T10:33:36;11.10;;;7.00;;
23470;SDS011;11908;50.806;4.424;2023-06-19T10:36:15;8.90;;;6.70;;
23470;SDS011;11908;50.806;4.424;2023-06-19T10:38:42;13.15;;;6.50;;
23470;SDS011;11908;50.806;4.424;2023-06-19T10:41:15;10.48;;;6.35;;
23470;SDS011;11908;50.806;4.424;2023-06-19T10:43:42;8.23;;;6.63;;
23470;SDS011;11908;50.806;4.424;2023-06-19T10:46:21;10.27;;;6.22;;
23470;SDS011;11908;50.806;4.424;2023-06-19T10:48:48;12.32;;;7.93;;
23470;SDS011;11908;50.806;4.424;2023-06-19T10:51:18;11.82;;;7.53;;
23470;SDS011;11908;50.806;4.424;2023-06-19T10:53:44;13.35;;;8.45;;
23470;SDS011;11908;50.806;4.424;2023-06-19T10:56:09;8.80;;;6.53;;
23470;SDS011;11908;50.806;4.424;2023-06-19T10:58:35;13.90;;;7.65;;
23470;SDS011;11908;50.806;4.424;2023-06-19T11:01:01;8.70;;;6.68;;
23470;SDS011;11908;50.806;4.424;2023-06-19T11:03:26;9.57;;;7.00;;
23470;SDS011;11908;50.806;4.424;2023-06-19T11:05:52;10.63;;;7.35;;
23470;SDS011;11908;50.806;4.424;2023-06-19T11:08:18;11.23;;;6.97;;
23470;SDS011;11908;50.806;4.424;2023-06-19T11:10:45;12.93;;;7.85;;
23470;SDS011;11908;50.806;4.424;2023-06-19T11:13:15;14.57;;;7.07;;
23470;SDS011;11908;50.806;4.424;2023-06-19T11:15:45;11.63;;;6.45;;
23470;SDS011;11908;50.806;4.424;2023-06-19T11:18:14;9.38;;;5.95;;
23470;SDS011;11908;50.806;4.424;2023-06-19T11:20:44;9.43;;;5.45;;
23470;SDS011;11908;50.806;4.424;2023-06-19T11:23:15;9.95;;;5.78;;
23470;SDS011;11908;50.806;4.424;2023-06-19T11:25:42;9.10;;;5.65;;
23470;SDS011;11908;50.806;4.424;2023-06-19T11:28:15;6.38;;;5.10;;
23470;SDS011;11908;50.806;4.424;2023-06-19T11:30:47;9.55;;;5.32;;
23470;SDS011;11908;50.806;4.424;2023-06-19T11:33:17;7.88;;;5.22;;
23470;SDS011;11908;50.806;4.424;2023-06-19T11:35:59;9.07;;;5.00;;
23470;SDS011;11908;50.806;4.424;2023-06-19T11:38:25;7.22;;;4.80;;
23470;SDS011;11908;50.806;4.424;2023-06-19T11:40:52;8.25;;;5.00;;
23470;SDS011;11908;50.806;4.424;2023-06-19T11:43:25;7.68;;;4.90;;
23470;SDS011;11908;50.806;4.424;2023-06-19T11:48:24;7.38;;;4.90;;
23470;SDS011;11908;50.806;4.424;2023-06-19T11:50:50;6.85;;;5.28;;
23470;SDS011;11908;50.806;4.424;2023-06-19T11:53:17;7.40;;;4.88;;
23470;SDS011;11908;50.806;4.424;2023-06-19T11:55:43;6.60;;;5.22;;
23470;SDS011;11908;50.806;4.424;2023-06-19T11:58:09;8.80;;;5.10;;
23470;SDS011;11908;50.806;4.424;2023-06-19T12:00:36;8.23;;;4.82;;
23470;SDS011;11908;50.806;4.424;2023-06-19T12:03:02;6.13;;;4.65;;
23470;SDS011;11908;50.806;4.424;2023-06-19T12:05:28;5.22;;;4.35;;
23470;SDS011;11908;50.806;4.424;2023-06-19T12:07:54;8.02;;;4.90;;
23470;SDS011;11908;50.806;4.424;2023-06-19T12:10:20;13.25;;;4.88;;
23470;SDS011;11908;50.806;4.424;2023-06-19T12:12:46;8.52;;;5.18;;
23470;SDS011;11908;50.806;4.424;2023-06-19T12:15:11;8.80;;;5.13;;
23470;SDS011;11908;50.806;4.424;2023-06-19T12:17:37;7.90;;;4.97;;
23470;SDS011;11908;50.806;4.424;2023-06-19T12:20:03;6.43;;;5.03;;
23470;SDS011;11908;50.806;4.424;2023-06-19T12:22:31;9.77;;;5.20;;
23470;SDS011;11908;50.806;4.424;2023-06-19T12:24:58;6.53;;;4.72;;
23470;SDS011;11908;50.806;4.424;2023-06-19T12:27:24;7.18;;;4.82;;
23470;SDS011;11908;50.806;4.424;2023-06-19T12:29:50;8.00;;;4.95;;
23470;SDS011;11908;50.806;4.424;2023-06-19T12:32:15;7.10;;;4.63;;
23470;SDS011;11908;50.806;4.424;2023-06-19T12:34:41;6.20;;;4.45;;
23470;SDS011;11908;50.806;4.424;2023-06-19T12:37:15;11.38;;;4.78;;
23470;SDS011;11908;50.806;4.424;2023-06-19T12:39:42;8.65;;;5.20;;
23470;SDS011;11908;50.806;4.424;2023-06-19T12:42:09;7.25;;;5.32;;
23470;SDS011;11908;50.806;4.424;2023-06-19T12:44:37;8.93;;;5.15;;
23470;SDS011;11908;50.806;4.424;2023-06-19T12:47:06;7.95;;;5.43;;
23470;SDS011;11908;50.806;4.424;2023-06-19T12:49:32;10.27;;;5.15;;
23470;SDS011;11908;50.806;4.424;2023-06-19T12:51:58;6.43;;;5.05;;
23470;SDS011;11908;50.806;4.424;2023-06-19T12:54:23;9.45;;;5.10;;
23470;SDS011;11908;50.806;4.424;2023-06-19T12:56:50;7.90;;;4.75;;
23470;SDS011;11908;50.806;4.424;2023-06-19T12:59:16;5.88;;;4.72;;
23470;SDS011;11908;50.806;4.424;2023-06-19T13:01:42;6.60;;;4.07;;
23470;SDS011;11908;50.806;4.424;2023-06-19T13:04:07;7.35;;;4.60;;
23470;SDS011;11908;50.806;4.424;2023-06-19T13:06:33;7.10;;;4.30;;
23470;SDS011;11908;50.806;4.424;2023-06-19T13:09:00;8.75;;;4.82;;
23470;SDS011;11908;50.806;4.424;2023-06-19T13:11:27;8.60;;;5.45;;
23470;SDS011;11908;50.806;4.424;2023-06-19T13:13:53;7.50;;;4.80;;
23470;SDS011;11908;50.806;4.424;2023-06-19T13:16:18;6.07;;;4.75;;
23470;SDS011;11908;50.806;4.424;2023-06-19T13:18:44;6.55;;;4.88;;
23470;SDS011;11908;50.806;4.424;2023-06-19T13:21:13;9.35;;;5.00;;
23470;SDS011;11908;50.806;4.424;2023-06-19T13:23:40;7.97;;;4.88;;
23470;SDS011;11908;50.806;4.424;2023-06-19T13:26:06;5.60;;;4.30;;
23470;SDS011;11908;50.806;4.424;2023-06-19T13:28:32;8.15;;;5.03;;
23470;SDS011;11908;50.806;4.424;2023-06-19T13:30:57;7.43;;;6.05;;
23470;SDS011;11908;50.806;4.424;2023-06-19T13:33:24;7.75;;;5.20;;
23470;SDS011;11908;50.806;4.424;2023-06-19T13:35:50;14.57;;;4.90;;
23470;SDS011;11908;50.806;4.424;2023-06-19T13:38:17;7.05;;;4.53;;
23470;SDS011;11908;50.806;4.424;2023-06-19T13:40:43;7.88;;;4.53;;
23470;SDS011;11908;50.806;4.424;2023-06-19T13:43:09;6.18;;;4.38;;
23470;SDS011;11908;50.806;4.424;2023-06-19T13:45:35;7.43;;;4.60;;
23470;SDS011;11908;50.806;4.424;2023-06-19T13:48:03;4.72;;;3.97;;
23470;SDS011;11908;50.806;4.424;2023-06-19T13:50:29;4.22;;;3.50;;
23470;SDS011;11908;50.806;4.424;2023-06-19T13:52:55;3.85;;;3.22;;
23470;SDS011;11908;50.806;4.424;2023-06-19T13:55:21;5.88;;;3.78;;
23470;SDS011;11908;50.806;4.424;2023-06-19T13:57:48;4.97;;;3.85;;
23470;SDS011;11908;50.806;4.424;2023-06-19T14:00:14;5.85;;;3.85;;
23470;SDS011;11908;50.806;4.424;2023-06-19T14:02:39;5.63;;;3.63;;
23470;SDS011;11908;50.806;4.424;2023-06-19T14:05:06;7.15;;;4.00;;
23470;SDS011;11908;50.806;4.424;2023-06-19T14:07:33;5.97;;;4.10;;
23470;SDS011;11908;50.806;4.424;2023-06-19T14:10:00;10.05;;;4.32;;
23470;SDS011;11908;50.806;4.424;2023-06-19T14:12:27;7.18;;;4.63;;
23470;SDS011;11908;50.806;4.424;2023-06-19T14:14:54;5.68;;;3.72;;
23470;SDS011;11908;50.806;4.424;2023-06-19T14:17:20;5.85;;;3.78;;
23470;SDS011;11908;50.806;4.424;2023-06-19T14:19:46;5.07;;;3.67;;
23470;SDS011;11908;50.806;4.424;2023-06-19T14:22:12;3.35;;;3.03;;
23470;SDS011;11908;50.806;4.424;2023-06-19T14:24:38;6.30;;;3.78;;
23470;SDS011;11908;50.806;4.424;2023-06-19T14:27:03;4.85;;;3.95;;
23470;SDS011;11908;50.806;4.424;2023-06-19T14:29:29;8.45;;;3.70;;
23470;SDS011;11908;50.806;4.424;2023-06-19T14:31:55;7.78;;;4.47;;
23470;SDS011;11908;50.806;4.424;2023-06-19T14:34:21;5.85;;;3.90;;
23470;SDS011;11908;50.806;4.424;2023-06-19T14:36:46;6.30;;;3.85;;
23470;SDS011;11908;50.806;4.424;2023-06-19T14:39:12;7.40;;;3.97;;
23470;SDS011;11908;50.806;4.424;2023-06-19T14:41:39;4.28;;;3.20;;
23470;SDS011;11908;50.806;4.424;2023-06-19T14:44:04;4.32;;;3.35;;
23470;SDS011;11908;50.806;4.424;2023-06-19T14:46:33;6.63;;;3.70;;
23470;SDS011;11908;50.806;4.424;2023-06-19T14:49:04;6.68;;;3.35;;